sensor_id;sensor_type;location;lat;lon;timestamp;temperature;humidity
15937;DHT22;9163;48.818;8.976;2023-05-10T00:02:15;12.40;99.90
15937;DHT22;9163;48.818;8.976;2023-05-10T00:04:43;12.40;99.90
15937;DHT22;9163;48.818;8.976;2023-05-10T00:07:10;12.30;99.90
15937;DHT22;9163;48.818;8.976;2023-05-10T00:09:38;12.20;99.90
15937;DHT22;9163;48.818;8.976;2023-05-10T00:12:06;12.20;99.90
15937;DHT22;9163;48.818;8.976;2023-05-10T00:14:33;12.10;99.90
15937;DHT22;9163;48.818;8.976;2023-05-10T00:17:00;12.10;99.90
15937;DHT22;9163;48.818;8.976;2023-05-10T00:19:27;12.10;99.90
15937;DHT22;9163;48.818;8.976;2023-05-10T00:21:54;12.00;99.90
15937;DHT22;9163;48.818;8.976;2023-05-10T00:24:22;12.00;99.90
15937;DHT22;9163;48.818;8.976;2023-05-10T00:26:50;12.00;99.90
15937;DHT22;9163;48.818;8.976;2023-05-10T00:29:17;12.00;99.90
15937;DHT22;9163;48.818;8.976;2023-05-10T00:31:45;12.00;99.90
15937;DHT22;9163;48.818;8.976;2023-05-10T00:34:12;12.00;99.90
15937;DHT22;9163;48.818;8.976;2023-05-10T00:36:39;11.90;99.90
15937;DHT22;9163;48.818;8.976;2023-05-10T00:39:07;11.90;99.90
15937;DHT22;9163;48.818;8.976;2023-05-10T00:41:34;11.90;99.90
15937;DHT22;9163;48.818;8.976;2023-05-10T00:44:03;11.90;99.90
15937;DHT22;9163;48.818;8.976;2023-05-10T00:46:31;11.90;99.90
15937;DHT22;9163;48.818;8.976;2023-05-10T00:48:59;11.90;99.90
15937;DHT22;9163;48.818;8.976;2023-05-10T00:51:26;11.90;99.90
15937;DHT22;9163;48.818;8.976;2023-05-10T00:53:53;11.90;99.90
15937;DHT22;9163;48.818;8.976;2023-05-10T00:56:22;11.90;99.90
15937;DHT22;9163;48.818;8.976;2023-05-10T00:58:50;11.80;99.90
15937;DHT22;9163;48.818;8.976;2023-05-10T01:01:19;11.90;99.90
15937;DHT22;9163;48.818;8.976;2023-05-10T01:03:46;11.90;99.90
15937;DHT22;9163;48.818;8.976;2023-05-10T01:06:14;11.90;99.90
15937;DHT22;9163;48.818;8.976;2023-05-10T01:08:41;11.80;99.90
15937;DHT22;9163;48.818;8.976;2023-05-10T01:11:08;11.80;99.90
15937;DHT22;9163;48.818;8.976;2023-05-10T01:13:38;11.80;99.90
15937;DHT22;9163;48.818;8.976;2023-05-10T01:16:06;11.80;99.90
15937;DHT22;9163;48.818;8.976;2023-05-10T01:18:37;11.80;99.90
15937;DHT22;9163;48.818;8.976;2023-05-10T01:21:15;11.80;99.90
15937;DHT22;9163;48.818;8.976;2023-05-10T01:24:35;11.80;99.90
15937;DHT22;9163;48.818;8.976;2023-05-10T01:27:55;11.80;99.90
15937;DHT22;9163;48.818;8.976;2023-05-10T01:30:51;11.80;99.90
15937;DHT22;9163;48.818;8.976;2023-05-10T01:33:27;11.80;99.90
15937;DHT22;9163;48.818;8.976;2023-05-10T01:36:05;11.80;99.90
15937;DHT22;9163;48.818;8.976;2023-05-10T01:38:40;11.80;99.90
15937;DHT22;9163;48.818;8.976;2023-05-10T01:41:13;11.80;99.90
15937;DHT22;9163;48.818;8.976;2023-05-10T01:43:48;11.80;99.90
15937;DHT22;9163;48.818;8.976;2023-05-10T01:46:24;11.80;99.90
15937;DHT22;9163;48.818;8.976;2023-05-10T01:48:57;11.70;99.90
15937;DHT22;9163;48.818;8.976;2023-05-10T01:51:27;11.70;99.90
15937;DHT22;9163;48.818;8.976;2023-05-10T01:54:00;11.70;99.90
15937;DHT22;9163;48.818;8.976;2023-05-10T01:56:30;11.60;99.90
15937;DHT22;9163;48.818;8.976;2023-05-10T01:58:58;11.60;99.90
15937;DHT22;9163;48.818;8.976;2023-05-10T02:01:27;11.60;99.90
15937;DHT22;9163;48.818;8.976;2023-05-10T02:03:57;11.60;99.90
15937;DHT22;9163;48.818;8.976;2023-05-10T02:06:25;11.60;99.90
15937;DHT22;9163;48.818;8.976;2023-05-10T02:08:54;11.60;99.90
15937;DHT22;9163;48.818;8.976;2023-05-10T02:11:23;11.60;99.90
15937;DHT22;9163;48.818;8.976;2023-05-10T02:13:51;11.60;99.90
15937;DHT22;9163;48.818;8.976;2023-05-10T02:16:21;11.60;99.90
15937;DHT22;9163;48.818;8.976;2023-05-10T02:18:51;11.60;99.90
15937;DHT22;9163;48.818;8.976;2023-05-10T02:21:24;11.60;99.90
15937;DHT22;9163;48.818;8.976;2023-05-10T02:24:00;11.60;99.90
15937;DHT22;9163;48.818;8.976;2023-05-10T02:26:31;11.50;99.90
15937;DHT22;9163;48.818;8.976;2023-05-10T02:29:01;11.50;99.90
15937;DHT22;9163;48.818;8.976;2023-05-10T02:31:30;11.50;99.90
15937;DHT22;9163;48.818;8.976;2023-05-10T02:33:59;11.40;99.90
15937;DHT22;9163;48.818;8.976;2023-05-10T02:36:30;11.40;99.90
15937;DHT22;9163;48.818;8.976;2023-05-10T02:38:59;11.30;99.90
15937;DHT22;9163;48.818;8.976;2023-05-10T02:41:30;11.30;99.90
15937;DHT22;9163;48.818;8.976;2023-05-10T02:44:00;11.30;99.90
15937;DHT22;9163;48.818;8.976;2023-05-10T02:46:28;11.30;99.90
15937;DHT22;9163;48.818;8.976;2023-05-10T02:48:56;11.30;99.90
15937;DHT22;9163;48.818;8.976;2023-05-10T02:51:25;11.40;99.90
15937;DHT22;9163;48.818;8.976;2023-05-10T02:53:57;11.40;99.90
15937;DHT22;9163;48.818;8.976;2023-05-10T02:56:31;11.40;99.90
15937;DHT22;9163;48.818;8.976;2023-05-10T02:59:00;11.40;99.90
15937;DHT22;9163;48.818;8.976;2023-05-10T03:01:27;11.40;99.90
15937;DHT22;9163;48.818;8.976;2023-05-10T03:03:55;11.40;99.90
15937;DHT22;9163;48.818;8.976;2023-05-10T03:06:23;11.40;99.90
15937;DHT22;9163;48.818;8.976;2023-05-10T03:08:51;11.40;99.90
15937;DHT22;9163;48.818;8.976;2023-05-10T03:11:32;11.40;99.90
15937;DHT22;9163;48.818;8.976;2023-05-10T03:14:13;11.40;99.90
15937;DHT22;9163;48.818;8.976;2023-05-10T03:16:48;11.40;99.90
15937;DHT22;9163;48.818;8.976;2023-05-10T03:19:26;11.40;99.90
15937;DHT22;9163;48.818;8.976;2023-05-10T03:22:04;11.40;99.90
15937;DHT22;9163;48.818;8.976;2023-05-10T03:24:37;11.50;99.90
15937;DHT22;9163;48.818;8.976;2023-05-10T03:27:08;11.40;99.90
15937;DHT22;9163;48.818;8.976;2023-05-10T03:29:36;11.40;99.90
15937;DHT22;9163;48.818;8.976;2023-05-10T03:32:05;11.50;99.90
15937;DHT22;9163;48.818;8.976;2023-05-10T03:34:32;11.50;99.90
15937;DHT22;9163;48.818;8.976;2023-05-10T03:36:59;11.50;99.90
15937;DHT22;9163;48.818;8.976;2023-05-10T03:39:27;11.40;99.90
15937;DHT22;9163;48.818;8.976;2023-05-10T03:41:56;11.50;99.90
15937;DHT22;9163;48.818;8.976;2023-05-10T03:44:24;11.50;99.90
15937;DHT22;9163;48.818;8.976;2023-05-10T03:46:52;11.40;99.90
15937;DHT22;9163;48.818;8.976;2023-05-10T03:49:20;11.40;99.90
15937;DHT22;9163;48.818;8.976;2023-05-10T03:51:47;11.30;99.90
15937;DHT22;9163;48.818;8.976;2023-05-10T03:54:14;11.30;99.90
15937;DHT22;9163;48.818;8.976;2023-05-10T03:56:41;11.30;99.90
15937;DHT22;9163;48.818;8.976;2023-05-10T03:59:09;11.20;99.90
15937;DHT22;9163;48.818;8.976;2023-05-10T04:01:37;11.30;99.90
15937;DHT22;9163;48.818;8.976;2023-05-10T04:04:04;11.20;99.90
15937;DHT22;9163;48.818;8.976;2023-05-10T04:06:32;11.30;99.90
15937;DHT22;9163;48.818;8.976;2023-05-10T04:08:59;11.30;99.90
15937;DHT22;9163;48.818;8.976;2023-05-10T04:11:30;11.30;99.90
15937;DHT22;9163;48.818;8.976;2023-05-10T04:13:57;11.30;99.90
15937;DHT22;9163;48.818;8.976;2023-05-10T04:16:24;11.30;99.90
15937;DHT22;9163;48.818;8.976;2023-05-10T04:18:53;11.30;99.90
15937;DHT22;9163;48.818;8.976;2023-05-10T04:21:20;11.40;99.90
15937;DHT22;9163;48.818;8.976;2023-05-10T04:23:47;11.40;99.90
15937;DHT22;9163;48.818;8.976;2023-05-10T04:26:15;11.50;99.90
15937;DHT22;9163;48.818;8.976;2023-05-10T04:28:42;11.50;99.90
15937;DHT22;9163;48.818;8.976;2023-05-10T04:31:10;11.50;99.90
15937;DHT22;9163;48.818;8.976;2023-05-10T04:33:37;11.40;99.90
15937;DHT22;9163;48.818;8.976;2023-05-10T04:36:06;11.40;99.90
15937;DHT22;9163;48.818;8.976;2023-05-10T04:38:33;11.50;99.90
15937;DHT22;9163;48.818;8.976;2023-05-10T04:41:04;11.50;99.90
15937;DHT22;9163;48.818;8.976;2023-05-10T04:43:32;11.60;99.90
15937;DHT22;9163;48.818;8.976;2023-05-10T04:45:59;11.60;99.90
15937;DHT22;9163;48.818;8.976;2023-05-10T04:48:26;11.60;99.90
15937;DHT22;9163;48.818;8.976;2023-05-10T04:50:54;11.60;99.90
15937;DHT22;9163;48.818;8.976;2023-05-10T04:53:22;11.60;99.90
15937;DHT22;9163;48.818;8.976;2023-05-10T04:55:49;11.60;99.90
15937;DHT22;9163;48.818;8.976;2023-05-10T04:58:17;11.60;99.90
15937;DHT22;9163;48.818;8.976;2023-05-10T05:00:44;11.60;99.90
15937;DHT22;9163;48.818;8.976;2023-05-10T05:03:11;11.60;99.90
15937;DHT22;9163;48.818;8.976;2023-05-10T05:05:38;11.60;99.90
15937;DHT22;9163;48.818;8.976;2023-05-10T05:08:05;11.70;99.90
15937;DHT22;9163;48.818;8.976;2023-05-10T05:10:34;11.70;99.90
15937;DHT22;9163;48.818;8.976;2023-05-10T05:13:01;11.70;99.90
15937;DHT22;9163;48.818;8.976;2023-05-10T05:15:28;11.80;99.90
15937;DHT22;9163;48.818;8.976;2023-05-10T05:17:56;11.70;99.90
15937;DHT22;9163;48.818;8.976;2023-05-10T05:20:23;11.80;99.90
15937;DHT22;9163;48.818;8.976;2023-05-10T05:22:50;11.90;99.90
15937;DHT22;9163;48.818;8.976;2023-05-10T05:25:18;12.00;99.90
15937;DHT22;9163;48.818;8.976;2023-05-10T05:27:46;12.00;99.90
15937;DHT22;9163;48.818;8.976;2023-05-10T05:30:13;12.10;99.90
15937;DHT22;9163;48.818;8.976;2023-05-10T05:32:40;12.20;99.90
15937;DHT22;9163;48.818;8.976;2023-05-10T05:35:08;12.10;99.90
15937;DHT22;9163;48.818;8.976;2023-05-10T05:37:35;12.20;99.90
15937;DHT22;9163;48.818;8.976;2023-05-10T05:40:03;12.20;99.90
15937;DHT22;9163;48.818;8.976;2023-05-10T05:42:31;12.30;99.90
15937;DHT22;9163;48.818;8.976;2023-05-10T05:44:59;12.30;99.90
15937;DHT22;9163;48.818;8.976;2023-05-10T05:47:27;12.20;99.90
15937;DHT22;9163;48.818;8.976;2023-05-10T05:49:54;12.20;99.90
15937;DHT22;9163;48.818;8.976;2023-05-10T05:52:21;12.40;99.90
15937;DHT22;9163;48.818;8.976;2023-05-10T05:54:48;12.50;99.90
15937;DHT22;9163;48.818;8.976;2023-05-10T05:57:16;12.50;99.90
15937;DHT22;9163;48.818;8.976;2023-05-10T05:59:43;12.60;99.90
15937;DHT22;9163;48.818;8.976;2023-05-10T06:02:11;12.60;99.90
15937;DHT22;9163;48.818;8.976;2023-05-10T06:04:39;12.50;99.90
15937;DHT22;9163;48.818;8.976;2023-05-10T06:07:06;12.50;99.90
15937;DHT22;9163;48.818;8.976;2023-05-10T06:09:33;12.40;99.90
15937;DHT22;9163;48.818;8.976;2023-05-10T06:12:01;12.50;99.90
15937;DHT22;9163;48.818;8.976;2023-05-10T06:14:28;12.40;99.90
15937;DHT22;9163;48.818;8.976;2023-05-10T06:16:55;12.40;99.90
15937;DHT22;9163;48.818;8.976;2023-05-10T06:19:24;12.40;99.90
15937;DHT22;9163;48.818;8.976;2023-05-10T06:21:52;12.40;99.90
15937;DHT22;9163;48.818;8.976;2023-05-10T06:24:19;12.50;99.90
15937;DHT22;9163;48.818;8.976;2023-05-10T06:26:47;12.50;99.90
15937;DHT22;9163;48.818;8.976;2023-05-10T06:29:15;12.50;99.90
15937;DHT22;9163;48.818;8.976;2023-05-10T06:31:43;12.50;99.90
15937;DHT22;9163;48.818;8.976;2023-05-10T06:34:10;12.50;99.90
15937;DHT22;9163;48.818;8.976;2023-05-10T06:36:39;12.50;99.90
15937;DHT22;9163;48.818;8.976;2023-05-10T06:39:07;12.40;99.90
15937;DHT22;9163;48.818;8.976;2023-05-10T06:41:34;12.50;99.90
15937;DHT22;9163;48.818;8.976;2023-05-10T06:44:01;12.60;99.90
15937;DHT22;9163;48.818;8.976;2023-05-10T06:46:29;12.60;99.90
15937;DHT22;9163;48.818;8.976;2023-05-10T06:48:56;12.60;99.90
15937;DHT22;9163;48.818;8.976;2023-05-10T06:51:24;12.60;99.90
15937;DHT22;9163;48.818;8.976;2023-05-10T06:53:52;12.80;99.90
15937;DHT22;9163;48.818;8.976;2023-05-10T06:56:20;12.80;99.90
15937;DHT22;9163;48.818;8.976;2023-05-10T06:58:47;12.90;99.90
15937;DHT22;9163;48.818;8.976;2023-05-10T07:01:14;13.00;99.90
15937;DHT22;9163;48.818;8.976;2023-05-10T07:03:42;12.90;99.90
15937;DHT22;9163;48.818;8.976;2023-05-10T07:06:09;12.80;99.90
15937;DHT22;9163;48.818;8.976;2023-05-10T07:08:36;12.70;99.90
15937;DHT22;9163;48.818;8.976;2023-05-10T07:11:06;12.70;99.90
15937;DHT22;9163;48.818;8.976;2023-05-10T07:13:34;12.80;99.90
15937;DHT22;9163;48.818;8.976;2023-05-10T07:16:02;12.80;99.90
15937;DHT22;9163;48.818;8.976;2023-05-10T07:18:30;12.90;99.90
15937;DHT22;9163;48.818;8.976;2023-05-10T07:20:57;13.10;99.90
15937;DHT22;9163;48.818;8.976;2023-05-10T07:23:24;13.30;99.90
15937;DHT22;9163;48.818;8.976;2023-05-10T07:25:51;13.30;99.90
15937;DHT22;9163;48.818;8.976;2023-05-10T07:28:20;13.40;99.90
15937;DHT22;9163;48.818;8.976;2023-05-10T07:30:47;13.50;99.90
15937;DHT22;9163;48.818;8.976;2023-05-10T07:33:15;13.60;99.90
15937;DHT22;9163;48.818;8.976;2023-05-10T07:35:42;13.70;99.90
15937;DHT22;9163;48.818;8.976;2023-05-10T07:38:10;13.70;99.90
15937;DHT22;9163;48.818;8.976;2023-05-10T07:40:38;13.90;99.90
15937;DHT22;9163;48.818;8.976;2023-05-10T07:43:05;14.20;99.90
15937;DHT22;9163;48.818;8.976;2023-05-10T07:45:34;14.20;99.90
15937;DHT22;9163;48.818;8.976;2023-05-10T07:48:02;14.20;99.90
15937;DHT22;9163;48.818;8.976;2023-05-10T07:50:29;14.00;99.90
15937;DHT22;9163;48.818;8.976;2023-05-10T07:52:56;14.10;99.90
15937;DHT22;9163;48.818;8.976;2023-05-10T07:55:24;14.20;99.90
15937;DHT22;9163;48.818;8.976;2023-05-10T07:57:51;14.30;99.90
15937;DHT22;9163;48.818;8.976;2023-05-10T08:00:19;14.50;99.90
15937;DHT22;9163;48.818;8.976;2023-05-10T08:02:48;14.70;99.90
15937;DHT22;9163;48.818;8.976;2023-05-10T08:05:15;14.60;99.90
15937;DHT22;9163;48.818;8.976;2023-05-10T08:07:43;14.70;99.90
15937;DHT22;9163;48.818;8.976;2023-05-10T08:10:10;14.80;99.90
15937;DHT22;9163;48.818;8.976;2023-05-10T08:12:38;14.80;99.90
15937;DHT22;9163;48.818;8.976;2023-05-10T08:15:06;14.80;99.90
15937;DHT22;9163;48.818;8.976;2023-05-10T08:17:33;14.90;99.90
15937;DHT22;9163;48.818;8.976;2023-05-10T08:20:02;15.00;99.90
15937;DHT22;9163;48.818;8.976;2023-05-10T08:22:30;15.30;99.90
15937;DHT22;9163;48.818;8.976;2023-05-10T08:24:57;15.00;99.90
15937;DHT22;9163;48.818;8.976;2023-05-10T08:27:24;15.30;99.90
15937;DHT22;9163;48.818;8.976;2023-05-10T08:29:51;15.20;99.90
15937;DHT22;9163;48.818;8.976;2023-05-10T08:32:19;15.30;99.90
15937;DHT22;9163;48.818;8.976;2023-05-10T08:34:46;15.30;99.90
15937;DHT22;9163;48.818;8.976;2023-05-10T08:37:14;15.40;99.90
15937;DHT22;9163;48.818;8.976;2023-05-10T08:39:42;15.00;99.90
15937;DHT22;9163;48.818;8.976;2023-05-10T08:42:09;15.20;99.90
15937;DHT22;9163;48.818;8.976;2023-05-10T08:44:37;15.10;99.90
15937;DHT22;9163;48.818;8.976;2023-05-10T08:47:05;15.00;99.90
15937;DHT22;9163;48.818;8.976;2023-05-10T08:49:33;15.00;99.90
15937;DHT22;9163;48.818;8.976;2023-05-10T08:52:03;15.00;99.90
15937;DHT22;9163;48.818;8.976;2023-05-10T08:54:35;15.20;99.90
15937;DHT22;9163;48.818;8.976;2023-05-10T08:57:03;15.40;99.90
15937;DHT22;9163;48.818;8.976;2023-05-10T08:59:30;15.40;99.90
15937;DHT22;9163;48.818;8.976;2023-05-10T09:01:59;15.70;99.90
15937;DHT22;9163;48.818;8.976;2023-05-10T09:04:27;15.80;99.90
15937;DHT22;9163;48.818;8.976;2023-05-10T09:06:54;15.20;99.90
15937;DHT22;9163;48.818;8.976;2023-05-10T09:09:23;15.60;99.90
15937;DHT22;9163;48.818;8.976;2023-05-10T09:11:53;15.90;99.90
15937;DHT22;9163;48.818;8.976;2023-05-10T09:14:23;16.30;99.90
15937;DHT22;9163;48.818;8.976;2023-05-10T09:16:51;16.00;99.90
15937;DHT22;9163;48.818;8.976;2023-05-10T09:19:20;15.80;99.90
15937;DHT22;9163;48.818;8.976;2023-05-10T09:21:47;15.50;99.90
15937;DHT22;9163;48.818;8.976;2023-05-10T09:24:15;15.80;99.90
15937;DHT22;9163;48.818;8.976;2023-05-10T09:26:46;15.90;99.90
15937;DHT22;9163;48.818;8.976;2023-05-10T09:29:16;15.80;99.90
15937;DHT22;9163;48.818;8.976;2023-05-10T09:31:44;15.60;99.90
15937;DHT22;9163;48.818;8.976;2023-05-10T09:34:16;15.50;99.90
15937;DHT22;9163;48.818;8.976;2023-05-10T09:36:52;15.80;99.90
15937;DHT22;9163;48.818;8.976;2023-05-10T09:39:20;15.50;99.90
15937;DHT22;9163;48.818;8.976;2023-05-10T09:41:47;15.60;99.90
15937;DHT22;9163;48.818;8.976;2023-05-10T09:44:18;15.70;99.90
15937;DHT22;9163;48.818;8.976;2023-05-10T09:46:50;16.10;99.90
15937;DHT22;9163;48.818;8.976;2023-05-10T09:49:18;16.40;99.90
15937;DHT22;9163;48.818;8.976;2023-05-10T09:51:46;16.40;99.90
15937;DHT22;9163;48.818;8.976;2023-05-10T09:54:14;16.40;99.90
15937;DHT22;9163;48.818;8.976;2023-05-10T09:56:42;16.50;99.90
15937;DHT22;9163;48.818;8.976;2023-05-10T09:59:11;16.50;99.90
15937;DHT22;9163;48.818;8.976;2023-05-10T10:01:40;16.50;99.60
15937;DHT22;9163;48.818;8.976;2023-05-10T10:04:09;16.70;94.50
15937;DHT22;9163;48.818;8.976;2023-05-10T10:06:37;16.20;99.90
15937;DHT22;9163;48.818;8.976;2023-05-10T10:09:04;16.70;99.90
15937;DHT22;9163;48.818;8.976;2023-05-10T10:11:34;16.90;87.80
15937;DHT22;9163;48.818;8.976;2023-05-10T10:14:02;16.70;90.70
15937;DHT22;9163;48.818;8.976;2023-05-10T10:16:29;16.70;99.90
15937;DHT22;9163;48.818;8.976;2023-05-10T10:18:58;16.50;99.90
15937;DHT22;9163;48.818;8.976;2023-05-10T10:21:26;16.80;99.90
15937;DHT22;9163;48.818;8.976;2023-05-10T10:23:53;16.90;99.90
15937;DHT22;9163;48.818;8.976;2023-05-10T10:26:21;16.80;95.10
15937;DHT22;9163;48.818;8.976;2023-05-10T10:28:56;16.60;97.10
15937;DHT22;9163;48.818;8.976;2023-05-10T10:31:30;16.60;99.90
15937;DHT22;9163;48.818;8.976;2023-05-10T10:34:05;16.80;99.80
15937;DHT22;9163;48.818;8.976;2023-05-10T10:36:40;16.30;64.60
15937;DHT22;9163;48.818;8.976;2023-05-10T10:39:09;16.10;79.20
15937;DHT22;9163;48.818;8.976;2023-05-10T10:41:39;15.50;92.40
15937;DHT22;9163;48.818;8.976;2023-05-10T10:44:36;15.00;99.90
15937;DHT22;9163;48.818;8.976;2023-05-10T10:47:06;14.90;97.70
15937;DHT22;9163;48.818;8.976;2023-05-10T10:49:43;15.10;99.90
15937;DHT22;9163;48.818;8.976;2023-05-10T10:52:14;15.40;99.90
15937;DHT22;9163;48.818;8.976;2023-05-10T10:54:50;15.80;98.60
15937;DHT22;9163;48.818;8.976;2023-05-10T10:57:19;15.90;87.90
15937;DHT22;9163;48.818;8.976;2023-05-10T10:59:48;16.20;73.20
15937;DHT22;9163;48.818;8.976;2023-05-10T11:02:42;16.30;71.40
15937;DHT22;9163;48.818;8.976;2023-05-10T11:08:16;16.80;81.70
15937;DHT22;9163;48.818;8.976;2023-05-10T11:10:52;16.10;67.10
15937;DHT22;9163;48.818;8.976;2023-05-10T11:13:29;15.40;87.50
15937;DHT22;9163;48.818;8.976;2023-05-10T11:15:57;15.60;86.60
15937;DHT22;9163;48.818;8.976;2023-05-10T11:18:26;15.80;88.90
15937;DHT22;9163;48.818;8.976;2023-05-10T11:20:57;15.70;85.30
15937;DHT22;9163;48.818;8.976;2023-05-10T11:23:30;15.20;87.50
15937;DHT22;9163;48.818;8.976;2023-05-10T11:25:58;15.30;98.70
15937;DHT22;9163;48.818;8.976;2023-05-10T11:28:26;15.30;91.50
15937;DHT22;9163;48.818;8.976;2023-05-10T11:30:54;14.90;99.90
15937;DHT22;9163;48.818;8.976;2023-05-10T11:33:22;14.80;99.90
15937;DHT22;9163;48.818;8.976;2023-05-10T11:35:49;14.70;99.90
15937;DHT22;9163;48.818;8.976;2023-05-10T11:38:18;14.50;99.90
15937;DHT22;9163;48.818;8.976;2023-05-10T11:40:45;14.80;99.90
15937;DHT22;9163;48.818;8.976;2023-05-10T11:43:13;15.00;99.90
15937;DHT22;9163;48.818;8.976;2023-05-10T11:45:41;15.10;99.90
15937;DHT22;9163;48.818;8.976;2023-05-10T11:48:09;15.40;99.90
15937;DHT22;9163;48.818;8.976;2023-05-10T11:50:36;15.40;98.30
15937;DHT22;9163;48.818;8.976;2023-05-10T11:53:04;15.40;96.80
15937;DHT22;9163;48.818;8.976;2023-05-10T11:55:34;15.70;91.00
15937;DHT22;9163;48.818;8.976;2023-05-10T11:58:02;15.90;96.10
15937;DHT22;9163;48.818;8.976;2023-05-10T12:00:30;16.20;94.90
15937;DHT22;9163;48.818;8.976;2023-05-10T12:02:59;16.00;90.20
15937;DHT22;9163;48.818;8.976;2023-05-10T12:05:28;15.80;90.50
15937;DHT22;9163;48.818;8.976;2023-05-10T12:08:11;15.60;75.20
15937;DHT22;9163;48.818;8.976;2023-05-10T12:10:40;15.50;45.00
15937;DHT22;9163;48.818;8.976;2023-05-10T12:13:11;15.60;49.90
15937;DHT22;9163;48.818;8.976;2023-05-10T12:15:38;15.90;55.60
15937;DHT22;9163;48.818;8.976;2023-05-10T12:18:07;16.10;45.00
15937;DHT22;9163;48.818;8.976;2023-05-10T12:20:35;16.20;51.80
15937;DHT22;9163;48.818;8.976;2023-05-10T12:23:02;16.40;52.00
15937;DHT22;9163;48.818;8.976;2023-05-10T12:25:32;16.40;46.40
15937;DHT22;9163;48.818;8.976;2023-05-10T12:28:04;16.60;61.40
15937;DHT22;9163;48.818;8.976;2023-05-10T12:30:33;16.80;44.60
15937;DHT22;9163;48.818;8.976;2023-05-10T12:33:01;16.70;37.30
15937;DHT22;9163;48.818;8.976;2023-05-10T12:35:32;16.80;52.60
15937;DHT22;9163;48.818;8.976;2023-05-10T12:38:00;16.90;42.70
15937;DHT22;9163;48.818;8.976;2023-05-10T12:40:27;16.20;37.50
15937;DHT22;9163;48.818;8.976;2023-05-10T12:42:55;16.30;56.20
15937;DHT22;9163;48.818;8.976;2023-05-10T12:45:23;16.30;49.20
15937;DHT22;9163;48.818;8.976;2023-05-10T12:47:51;16.20;46.40
15937;DHT22;9163;48.818;8.976;2023-05-10T12:50:19;16.10;39.40
15937;DHT22;9163;48.818;8.976;2023-05-10T12:52:46;16.30;52.10
15937;DHT22;9163;48.818;8.976;2023-05-10T12:55:13;16.50;43.00
15937;DHT22;9163;48.818;8.976;2023-05-10T12:57:41;16.10;33.30
15937;DHT22;9163;48.818;8.976;2023-05-10T13:00:09;16.10;39.10
15937;DHT22;9163;48.818;8.976;2023-05-10T13:02:37;16.20;47.90
15937;DHT22;9163;48.818;8.976;2023-05-10T13:05:05;16.30;51.90
15937;DHT22;9163;48.818;8.976;2023-05-10T13:07:33;16.40;46.40
15937;DHT22;9163;48.818;8.976;2023-05-10T13:10:00;16.50;39.10
15937;DHT22;9163;48.818;8.976;2023-05-10T13:12:27;15.90;43.40
15937;DHT22;9163;48.818;8.976;2023-05-10T13:14:55;15.90;36.70
15937;DHT22;9163;48.818;8.976;2023-05-10T13:17:22;15.90;48.60
15937;DHT22;9163;48.818;8.976;2023-05-10T13:19:51;16.40;61.40
15937;DHT22;9163;48.818;8.976;2023-05-10T13:22:18;16.90;32.00
15937;DHT22;9163;48.818;8.976;2023-05-10T13:24:45;16.40;13.70
15937;DHT22;9163;48.818;8.976;2023-05-10T13:27:13;16.40;11.90
15937;DHT22;9163;48.818;8.976;2023-05-10T13:29:40;16.50;1.00
15937;DHT22;9163;48.818;8.976;2023-05-10T13:32:07;16.70;7.20
15937;DHT22;9163;48.818;8.976;2023-05-10T13:34:34;16.60;4.70
15937;DHT22;9163;48.818;8.976;2023-05-10T13:37:03;16.70;1.00
15937;DHT22;9163;48.818;8.976;2023-05-10T13:39:30;16.80;1.00
15937;DHT22;9163;48.818;8.976;2023-05-10T13:42:00;16.90;1.00
15937;DHT22;9163;48.818;8.976;2023-05-10T13:44:27;17.00;1.00
15937;DHT22;9163;48.818;8.976;2023-05-10T13:46:55;17.10;1.00
15937;DHT22;9163;48.818;8.976;2023-05-10T13:49:22;17.00;1.00
15937;DHT22;9163;48.818;8.976;2023-05-10T13:51:49;17.10;1.00
15937;DHT22;9163;48.818;8.976;2023-05-10T13:54:19;17.00;1.00
15937;DHT22;9163;48.818;8.976;2023-05-10T13:56:47;16.90;1.00
15937;DHT22;9163;48.818;8.976;2023-05-10T13:59:15;16.70;1.00
15937;DHT22;9163;48.818;8.976;2023-05-10T14:01:42;16.50;1.00
15937;DHT22;9163;48.818;8.976;2023-05-10T14:04:10;16.50;1.00
15937;DHT22;9163;48.818;8.976;2023-05-10T14:06:38;16.40;1.00
15937;DHT22;9163;48.818;8.976;2023-05-10T14:09:05;16.50;1.00
15937;DHT22;9163;48.818;8.976;2023-05-10T14:11:33;16.00;1.00
15937;DHT22;9163;48.818;8.976;2023-05-10T14:14:01;16.20;1.00
15937;DHT22;9163;48.818;8.976;2023-05-10T14:16:28;16.20;1.00
15937;DHT22;9163;48.818;8.976;2023-05-10T14:18:55;16.60;1.00
15937;DHT22;9163;48.818;8.976;2023-05-10T14:21:22;16.60;1.00
15937;DHT22;9163;48.818;8.976;2023-05-10T14:23:50;16.80;1.00
15937;DHT22;9163;48.818;8.976;2023-05-10T14:26:17;17.00;1.00
15937;DHT22;9163;48.818;8.976;2023-05-10T14:28:45;16.60;1.00
15937;DHT22;9163;48.818;8.976;2023-05-10T14:31:13;16.30;1.00
15937;DHT22;9163;48.818;8.976;2023-05-10T14:33:40;16.20;1.00
15937;DHT22;9163;48.818;8.976;2023-05-10T14:36:08;16.10;1.00
15937;DHT22;9163;48.818;8.976;2023-05-10T14:38:35;16.30;1.00
15937;DHT22;9163;48.818;8.976;2023-05-10T14:41:02;16.30;1.00
15937;DHT22;9163;48.818;8.976;2023-05-10T14:43:29;16.30;1.00
15937;DHT22;9163;48.818;8.976;2023-05-10T14:45:58;16.70;1.00
15937;DHT22;9163;48.818;8.976;2023-05-10T14:48:26;17.00;1.00
15937;DHT22;9163;48.818;8.976;2023-05-10T14:50:53;17.40;1.00
15937;DHT22;9163;48.818;8.976;2023-05-10T14:53:20;17.70;1.00
15937;DHT22;9163;48.818;8.976;2023-05-10T14:55:47;17.70;1.00
15937;DHT22;9163;48.818;8.976;2023-05-10T14:58:14;17.60;1.00
15937;DHT22;9163;48.818;8.976;2023-05-10T15:00:42;17.50;1.00
15937;DHT22;9163;48.818;8.976;2023-05-10T15:03:11;17.50;1.00
15937;DHT22;9163;48.818;8.976;2023-05-10T15:05:38;17.30;1.00
15937;DHT22;9163;48.818;8.976;2023-05-10T15:08:05;17.60;1.00
15937;DHT22;9163;48.818;8.976;2023-05-10T15:10:32;17.80;1.00
15937;DHT22;9163;48.818;8.976;2023-05-10T15:13:00;17.70;1.00
15937;DHT22;9163;48.818;8.976;2023-05-10T15:15:27;17.60;1.00
15937;DHT22;9163;48.818;8.976;2023-05-10T15:17:54;17.60;1.00
15937;DHT22;9163;48.818;8.976;2023-05-10T15:20:23;17.40;1.00
15937;DHT22;9163;48.818;8.976;2023-05-10T15:22:50;17.40;1.00
15937;DHT22;9163;48.818;8.976;2023-05-10T15:25:17;17.50;1.00
15937;DHT22;9163;48.818;8.976;2023-05-10T15:27:45;16.80;1.00
15937;DHT22;9163;48.818;8.976;2023-05-10T15:30:12;16.60;1.00
15937;DHT22;9163;48.818;8.976;2023-05-10T15:32:40;16.70;1.00
15937;DHT22;9163;48.818;8.976;2023-05-10T15:35:08;16.90;1.00
15937;DHT22;9163;48.818;8.976;2023-05-10T15:37:37;16.90;1.00
15937;DHT22;9163;48.818;8.976;2023-05-10T15:40:06;16.50;1.00
15937;DHT22;9163;48.818;8.976;2023-05-10T15:42:33;16.50;1.00
15937;DHT22;9163;48.818;8.976;2023-05-10T15:45:01;16.80;1.00
15937;DHT22;9163;48.818;8.976;2023-05-10T15:47:29;16.80;1.00
15937;DHT22;9163;48.818;8.976;2023-05-10T15:49:56;17.00;1.00
15937;DHT22;9163;48.818;8.976;2023-05-10T15:52:24;17.00;1.00
15937;DHT22;9163;48.818;8.976;2023-05-10T15:54:52;17.00;1.00
15937;DHT22;9163;48.818;8.976;2023-05-10T15:57:20;17.00;1.00
15937;DHT22;9163;48.818;8.976;2023-05-10T15:59:47;16.90;1.00
15937;DHT22;9163;48.818;8.976;2023-05-10T16:02:15;16.90;1.00
15937;DHT22;9163;48.818;8.976;2023-05-10T16:04:44;17.00;1.00